TimeEDT,TemperatureF,Dew PointF,Humidity,Sea Level PressureIn,VisibilityMPH,Wind Direction,Wind SpeedMPH,Gust SpeedMPH,PrecipitationIn,Events,Conditions,WindDirDegrees,DateUTC
12:49 AM,71.6,68.0,88,29.94,10.0,North,6.9,-,N/A,,Overcast,360,2013-08-29 04:49:00
12:53 AM,71.1,68.0,90,29.94,10.0,North,8.1,-,N/A,,Overcast,10,2013-08-29 04:53:00
1:05 AM,71.6,68.0,88,29.95,10.0,NNE,10.4,-,N/A,,Overcast,20,2013-08-29 05:05:00
1:39 AM,71.6,66.2,83,29.95,10.0,NNE,10.4,18.4,N/A,,Overcast,20,2013-08-29 05:39:00
1:53 AM,71.1,66.0,84,29.95,10.0,NE,10.4,18.4,0.00,,Overcast,50,2013-08-29 05:53:00
2:32 AM,69.8,64.4,83,29.95,10.0,NNE,5.8,-,N/A,,Mostly Cloudy,30,2013-08-29 06:32:00
2:53 AM,69.1,64.9,87,29.94,10.0,North,4.6,-,N/A,,Clear,350,2013-08-29 06:53:00
3:53 AM,66.9,64.0,90,29.92,10.0,Calm,Calm,-,N/A,,Mostly Cloudy,0,2013-08-29 07:53:00
4:34 AM,66.2,64.4,94,29.96,10.0,NE,4.6,-,N/A,,Mostly Cloudy,50,2013-08-29 08:34:00
4:53 AM,66.9,64.9,93,29.97,10.0,NE,5.8,-,N/A,,Overcast,50,2013-08-29 08:53:00
5:53 AM,68.0,64.0,87,29.99,10.0,North,6.9,-,N/A,,Overcast,10,2013-08-29 09:53:00
6:53 AM,66.9,63.0,87,30.01,10.0,NNE,6.9,-,N/A,,Overcast,30,2013-08-29 10:53:00
7:53 AM,68.0,63.0,84,30.03,10.0,North,5.8,-,N/A,,Overcast,10,2013-08-29 11:53:00
8:33 AM,68.0,62.6,83,30.05,10.0,NNE,5.8,-,N/A,,Overcast,20,2013-08-29 12:33:00
8:53 AM,68.0,63.0,84,30.04,10.0,North,5.8,-,N/A,,Overcast,10,2013-08-29 12:53:00
9:27 AM,68.0,62.6,83,30.05,10.0,North,6.9,-,N/A,,Overcast,360,2013-08-29 13:27:00
9:53 AM,69.1,63.0,81,30.04,10.0,North,5.8,-,N/A,,Overcast,360,2013-08-29 13:53:00
10:24 AM,71.6,64.4,78,30.05,10.0,North,8.1,-,N/A,,Mostly Cloudy,10,2013-08-29 14:24:00
10:53 AM,73.0,64.0,73,30.05,10.0,North,6.9,-,N/A,,Overcast,10,2013-08-29 14:53:00
11:53 AM,73.9,64.0,71,30.04,10.0,North,6.9,-,N/A,,Overcast,360,2013-08-29 15:53:00
12:53 PM,73.9,64.0,71,30.04,10.0,ENE,5.8,-,N/A,,Overcast,60,2013-08-29 16:53:00
1:16 PM,73.4,64.4,73,30.04,10.0,ENE,4.6,-,N/A,,Overcast,60,2013-08-29 17:16:00
1:38 PM,75.2,64.4,69,30.04,10.0,NE,3.5,-,N/A,,Overcast,50,2013-08-29 17:38:00
1:53 PM,73.9,64.0,71,30.04,10.0,NE,5.8,-,N/A,,Overcast,50,2013-08-29 17:53:00
2:50 PM,73.4,64.4,73,30.03,10.0,ENE,5.8,-,N/A,,Overcast,70,2013-08-29 18:50:00
2:53 PM,73.0,64.0,73,30.03,10.0,ENE,5.8,-,N/A,,Overcast,60,2013-08-29 18:53:00
3:08 PM,73.4,64.4,73,30.03,10.0,ENE,4.6,-,0.00,,Overcast,70,2013-08-29 19:08:00
3:53 PM,73.9,64.0,71,30.02,10.0,ESE,6.9,-,0.00,,Mostly Cloudy,110,2013-08-29 19:53:00
4:20 PM,73.4,62.6,69,30.03,10.0,East,8.1,-,N/A,,Overcast,80,2013-08-29 20:20:00
4:53 PM,72.0,63.0,73,30.03,10.0,ENE,6.9,-,N/A,,Mostly Cloudy,70,2013-08-29 20:53:00
5:53 PM,69.1,61.0,75,30.04,10.0,ENE,8.1,-,N/A,,Mostly Cloudy,70,2013-08-29 21:53:00
6:53 PM,68.0,61.0,78,30.04,10.0,Calm,Calm,-,N/A,,Mostly Cloudy,0,2013-08-29 22:53:00
7:53 PM,66.9,61.0,81,30.05,10.0,East,3.5,-,N/A,,Mostly Cloudy,90,2013-08-29 23:53:00
8:00 PM,66.2,60.8,83,30.05,10.0,Calm,Calm,-,N/A,,Overcast,0,2013-08-30 00:00:00
8:53 PM,66.9,61.0,81,30.06,10.0,East,3.5,-,N/A,,Overcast,80,2013-08-30 00:53:00
9:00 PM,66.2,60.8,83,30.06,10.0,Calm,Calm,-,N/A,,Overcast,0,2013-08-30 01:00:00
9:53 PM,66.0,61.0,84,30.06,10.0,ENE,3.5,-,N/A,,Overcast,70,2013-08-30 01:53:00
10:53 PM,64.9,60.1,84,30.04,10.0,Calm,Calm,-,N/A,,Overcast,0,2013-08-30 02:53:00
11:13 PM,64.4,60.8,88,30.05,10.0,Calm,Calm,-,N/A,,Overcast,0,2013-08-30 03:13:00
11:53 PM,64.9,60.1,84,30.04,10.0,Calm,Calm,-,N/A,,Overcast,0,2013-08-30 03:53:00